createdAt,value
2023-02-04T00:00:42.709Z,0.00
2023-02-04T00:01:42.625Z,0.00
2023-02-04T00:02:42.758Z,0.00
2023-02-04T00:03:42.739Z,0.00
2023-02-04T00:04:42.748Z,0.00
2023-02-04T00:05:42.812Z,0.00
2023-02-04T00:06:42.644Z,0.00
2023-02-04T00:07:42.654Z,0.00
2023-02-04T00:08:42.794Z,0.00
2023-02-04T00:09:42.688Z,0.00
2023-02-04T00:10:42.689Z,0.00
2023-02-04T00:11:42.713Z,0.00
2023-02-04T00:12:42.839Z,0.00
2023-02-04T00:13:42.851Z,0.00
2023-02-04T00:14:42.856Z,0.00
2023-02-04T00:15:42.732Z,0.00
2023-02-04T00:16:42.753Z,0.00
2023-02-04T00:17:42.892Z,0.00
2023-02-04T00:18:42.915Z,0.00
2023-02-04T00:19:42.792Z,0.00
2023-02-04T00:20:42.925Z,0.00
2023-02-04T00:21:42.832Z,0.00
2023-02-04T00:22:42.829Z,0.00
2023-02-04T00:23:42.844Z,0.00
2023-02-04T00:24:42.969Z,0.00
2023-02-04T00:25:42.989Z,0.00
2023-02-04T00:26:42.869Z,0.00
2023-02-04T00:27:42.902Z,0.00
2023-02-04T00:28:43.034Z,0.00
2023-02-04T00:29:42.895Z,0.00
2023-02-04T00:30:42.904Z,0.00
2023-02-04T00:31:43.039Z,0.00
2023-02-04T00:32:43.059Z,0.00
2023-02-04T00:33:42.990Z,0.00
2023-02-04T00:34:43.080Z,0.00
2023-02-04T00:35:42.968Z,0.00
2023-02-04T00:36:43.108Z,0.00
2023-02-04T00:37:42.981Z,0.00
2023-02-04T00:38:43.126Z,0.00
2023-02-04T00:39:43.138Z,0.00
2023-02-04T00:40:43.022Z,0.00
2023-02-04T00:41:43.160Z,0.00
2023-02-04T00:42:43.169Z,0.00
2023-02-04T00:43:43.179Z,0.00
2023-02-04T00:44:43.063Z,0.00
2023-02-04T00:45:43.154Z,0.00
2023-02-04T00:46:43.085Z,0.00
2023-02-04T00:47:43.112Z,0.00
2023-02-04T00:48:43.239Z,0.00
2023-02-04T00:49:43.148Z,0.00
2023-02-04T00:50:43.259Z,0.00
2023-02-04T00:51:43.271Z,0.00
2023-02-04T00:52:43.281Z,0.00
2023-02-04T00:53:43.159Z,0.00
2023-02-04T00:54:43.304Z,0.00
2023-02-04T00:55:43.313Z,0.00
2023-02-04T00:56:43.329Z,0.00
2023-02-04T00:57:43.213Z,0.00
2023-02-04T00:58:43.345Z,0.00
2023-02-04T00:59:43.235Z,0.00
2023-02-04T01:00:43.412Z,0.00
2023-02-04T01:01:43.262Z,0.00
2023-02-04T01:02:43.504Z,0.00
2023-02-04T01:03:43.280Z,0.00
2023-02-04T01:04:43.416Z,0.00
2023-02-04T01:05:43.318Z,0.00
2023-02-04T01:06:43.439Z,0.00
2023-02-04T01:07:47.092Z,0.00
2023-02-04T01:08:43.460Z,0.00
2023-02-04T01:09:43.472Z,0.00
2023-02-04T01:10:43.484Z,0.00
2023-02-04T01:11:43.490Z,0.00
2023-02-04T01:12:43.501Z,0.00
2023-02-04T01:13:43.391Z,0.00
2023-02-04T01:14:43.527Z,0.00
2023-02-04T01:15:43.536Z,0.00
2023-02-04T01:16:43.484Z,0.00
2023-02-04T01:17:43.424Z,0.00
2023-02-04T01:18:43.446Z,0.00
2023-02-04T01:19:43.474Z,0.00
2023-02-04T01:20:43.593Z,0.00
2023-02-04T01:21:43.604Z,0.00
2023-02-04T01:22:43.501Z,0.00
2023-02-04T01:23:43.512Z,0.00
2023-02-04T01:24:43.641Z,0.00
2023-02-04T01:25:43.515Z,0.00
2023-02-04T01:26:43.657Z,0.00
2023-02-04T01:27:43.582Z,0.00
2023-02-04T01:28:43.547Z,0.00
2023-02-04T01:29:43.688Z,0.00
2023-02-04T01:30:43.710Z,0.00
2023-02-04T01:31:43.661Z,0.00
2023-02-04T01:32:43.725Z,0.00
2023-02-04T01:33:43.611Z,0.00
2023-02-04T01:34:43.615Z,0.00
2023-02-04T01:35:43.756Z,0.00
2023-02-04T01:36:43.633Z,0.00
2023-02-04T01:37:43.774Z,0.00
2023-02-04T01:38:43.786Z,0.00
2023-02-04T01:39:43.797Z,0.00
2023-02-04T01:40:43.674Z,0.00
2023-02-04T01:41:43.820Z,0.00
2023-02-04T01:42:43.695Z,0.00
2023-02-04T01:43:43.843Z,0.00
2023-02-04T01:44:43.725Z,0.00
2023-02-04T01:45:43.799Z,0.00
2023-02-04T01:46:43.874Z,0.00
2023-02-04T01:47:43.888Z,0.00
2023-02-04T01:48:43.893Z,0.00
2023-02-04T01:49:43.773Z,0.00
2023-02-04T01:50:43.918Z,0.00
2023-02-04T01:51:43.924Z,0.00
2023-02-04T01:52:43.799Z,0.00
2023-02-04T01:53:43.945Z,0.00
2023-02-04T01:54:43.843Z,0.00
2023-02-04T01:55:43.967Z,0.00
2023-02-04T01:56:43.847Z,0.00
2023-02-04T01:57:43.998Z,0.00
2023-02-04T01:58:43.867Z,0.00
2023-02-04T01:59:44.014Z,0.00
2023-02-04T02:00:43.913Z,0.00
2023-02-04T02:01:43.904Z,0.00
2023-02-04T02:02:43.998Z,0.00
2023-02-04T02:03:44.057Z,0.00
2023-02-04T02:04:43.947Z,0.00
2023-02-04T02:05:43.965Z,0.00
2023-02-04T02:06:43.962Z,0.00
2023-02-04T02:07:43.970Z,0.00
2023-02-04T02:08:43.978Z,0.00
2023-02-04T02:09:44.118Z,0.00
2023-02-04T02:10:44.002Z,0.00
2023-02-04T02:11:44.141Z,0.00
2023-02-04T02:12:44.017Z,0.00
2023-02-04T02:13:44.163Z,0.00
2023-02-04T02:14:44.039Z,0.00
2023-02-04T02:15:44.184Z,0.00
2023-02-04T02:16:44.179Z,0.00
2023-02-04T02:17:44.072Z,0.00
2023-02-04T02:18:44.223Z,0.00
2023-02-04T02:19:44.225Z,0.00
2023-02-04T02:20:44.135Z,0.00
2023-02-04T02:21:44.247Z,0.00
2023-02-04T02:22:44.146Z,0.00
2023-02-04T02:23:44.276Z,0.00
2023-02-04T02:24:44.155Z,0.00
2023-02-04T02:25:44.291Z,0.00
2023-02-04T02:26:44.187Z,0.00
2023-02-04T02:27:44.243Z,0.00
2023-02-04T02:28:44.321Z,0.00
2023-02-04T02:29:44.339Z,0.00
2023-02-04T02:30:44.401Z,0.00
2023-02-04T02:31:44.505Z,0.00
2023-02-04T02:32:44.256Z,0.00
2023-02-04T02:33:44.381Z,0.00
2023-02-04T02:34:44.256Z,0.00
2023-02-04T02:35:44.410Z,0.00
2023-02-04T02:36:44.275Z,0.00
2023-02-04T02:37:44.304Z,0.00
2023-02-04T02:38:44.298Z,0.00
2023-02-04T02:39:44.453Z,0.00
2023-02-04T02:40:44.322Z,0.00
2023-02-04T02:41:44.462Z,0.00
2023-02-04T02:42:44.469Z,0.00
2023-02-04T02:43:44.484Z,0.00
2023-02-04T02:44:44.492Z,0.00
2023-02-04T02:45:44.502Z,0.00
2023-02-04T02:46:44.388Z,0.00
2023-02-04T02:47:44.524Z,0.00
2023-02-04T02:48:44.401Z,0.00
2023-02-04T02:49:44.543Z,0.00
2023-02-04T02:50:44.557Z,0.00
2023-02-04T02:51:44.565Z,0.00
2023-02-04T02:52:44.549Z,0.00
2023-02-04T02:53:44.590Z,0.00
2023-02-04T02:54:44.464Z,0.00
2023-02-04T02:55:44.615Z,0.00
2023-02-04T02:56:44.502Z,0.00
2023-02-04T02:57:44.522Z,0.00
2023-02-04T02:58:44.507Z,0.00
2023-02-04T02:59:44.652Z,0.00
2023-02-04T03:00:44.545Z,0.00
2023-02-04T03:01:44.552Z,0.00
2023-02-04T03:02:44.622Z,0.00
2023-02-04T03:03:44.577Z,0.00
2023-02-04T03:04:44.705Z,0.00
2023-02-04T03:05:44.719Z,0.00
2023-02-04T03:06:44.598Z,0.00
2023-02-04T03:07:44.738Z,0.00
2023-02-04T03:08:44.629Z,0.00
2023-02-04T03:09:44.765Z,0.00
2023-02-04T03:10:44.636Z,0.00
2023-02-04T03:11:44.788Z,0.00
2023-02-04T03:12:44.661Z,0.00
2023-02-04T03:13:44.706Z,0.00
2023-02-04T03:14:44.690Z,0.00
2023-02-04T03:15:44.844Z,0.00
2023-02-04T03:16:44.707Z,0.00
2023-02-04T03:17:44.852Z,0.00
2023-02-04T03:18:44.756Z,0.00
2023-02-04T03:19:44.754Z,0.00
2023-02-04T03:20:44.771Z,0.00
2023-02-04T03:21:44.895Z,0.00
2023-02-04T03:22:44.780Z,0.00
2023-02-04T03:23:44.919Z,0.00
2023-02-04T03:24:44.800Z,0.00
2023-02-04T03:25:44.942Z,0.00
2023-02-04T03:26:44.821Z,0.00
2023-02-04T03:27:45.023Z,0.00
2023-02-04T03:28:44.847Z,0.00
2023-02-04T03:29:44.989Z,0.00
2023-02-04T03:30:44.971Z,0.00
2023-02-04T03:31:45.149Z,0.00
2023-02-04T03:32:44.894Z,0.00
2023-02-04T03:33:45.040Z,0.00
2023-02-04T03:34:44.914Z,0.00
2023-02-04T03:35:45.058Z,0.00
2023-02-04T03:36:44.934Z,0.00
2023-02-04T03:37:45.095Z,0.00
2023-02-04T03:38:44.958Z,0.00
2023-02-04T03:39:44.976Z,0.00
2023-02-04T03:40:45.114Z,0.00
2023-02-04T03:41:45.132Z,0.00
2023-02-04T03:42:45.020Z,0.00
2023-02-04T03:43:45.016Z,0.00
2023-02-04T03:44:45.161Z,0.00
2023-02-04T03:45:46.014Z,0.00
2023-02-04T03:46:45.082Z,0.00
2023-02-04T03:47:45.100Z,0.00
2023-02-04T03:48:45.072Z,0.00
2023-02-04T03:49:45.222Z,0.00
2023-02-04T03:50:45.233Z,0.00
2023-02-04T03:51:45.241Z,0.00
2023-02-04T03:52:45.249Z,0.00
2023-02-04T03:53:45.137Z,0.00
2023-02-04T03:54:45.142Z,0.00
2023-02-04T03:55:45.292Z,0.00
2023-02-04T03:56:45.178Z,0.00
2023-02-04T03:57:45.309Z,0.00
2023-02-04T03:58:45.219Z,0.00
2023-02-04T03:59:45.210Z,0.00
2023-02-04T04:00:45.225Z,0.00
2023-02-04T04:01:45.380Z,0.00
2023-02-04T04:02:45.289Z,0.00
2023-02-04T04:03:45.249Z,0.00
2023-02-04T04:04:45.387Z,0.00
2023-02-04T04:05:45.406Z,0.00
2023-02-04T04:06:45.412Z,0.00
2023-02-04T04:07:45.423Z,0.00
2023-02-04T04:08:45.332Z,0.00
2023-02-04T04:09:45.451Z,0.00
2023-02-04T04:10:45.457Z,0.00
2023-02-04T04:11:45.469Z,0.00
2023-02-04T04:12:45.348Z,0.00
2023-02-04T04:13:45.374Z,0.00
2023-02-04T04:14:45.405Z,0.00
2023-02-04T04:15:45.644Z,0.00
2023-02-04T04:16:45.395Z,0.00
2023-02-04T04:17:45.556Z,0.00
2023-02-04T04:18:45.443Z,0.00
2023-02-04T04:19:45.426Z,0.00
2023-02-04T04:20:45.440Z,0.00
2023-02-04T04:21:45.584Z,0.00
2023-02-04T04:22:45.596Z,0.00
2023-02-04T04:23:45.605Z,0.00
2023-02-04T04:24:45.518Z,0.00
2023-02-04T04:25:45.631Z,0.00
2023-02-04T04:26:45.644Z,0.00
2023-02-04T04:27:45.705Z,0.00
2023-02-04T04:28:45.547Z,0.00
2023-02-04T04:29:45.558Z,0.00
2023-02-04T04:30:45.643Z,0.00
2023-02-04T04:31:45.633Z,0.00
2023-02-04T04:32:45.600Z,0.00
2023-02-04T04:33:45.721Z,0.00
2023-02-04T04:34:45.609Z,0.00
2023-02-04T04:35:45.734Z,0.00
2023-02-04T04:36:45.750Z,0.00
2023-02-04T04:37:45.788Z,0.00
2023-02-04T04:38:45.636Z,0.00
2023-02-04T04:39:45.784Z,0.00
2023-02-04T04:40:45.660Z,0.00
2023-02-04T04:41:45.690Z,0.00
2023-02-04T04:42:45.680Z,0.00
2023-02-04T04:43:45.833Z,0.00
2023-02-04T04:44:45.705Z,0.00
2023-02-04T04:45:45.846Z,0.00
2023-02-04T04:46:45.795Z,0.00
2023-02-04T04:47:45.875Z,0.00
2023-02-04T04:48:45.893Z,0.00
2023-02-04T04:49:45.799Z,0.00
2023-02-04T04:50:45.767Z,0.00
2023-02-04T04:51:45.918Z,0.00
2023-02-04T04:52:45.810Z,0.00
2023-02-04T04:53:45.934Z,0.00
2023-02-04T04:54:45.832Z,0.00
2023-02-04T04:55:45.836Z,0.00
2023-02-04T04:56:45.969Z,0.00
2023-02-04T04:57:45.978Z,0.00
2023-02-04T04:58:45.872Z,0.00
2023-02-04T04:59:45.881Z,0.00
2023-02-04T05:00:45.921Z,0.00
2023-02-04T05:01:46.027Z,0.00
2023-02-04T05:02:46.052Z,0.00
2023-02-04T05:03:46.049Z,0.00
2023-02-04T05:04:45.982Z,0.00
2023-02-04T05:05:46.072Z,0.00
2023-02-04T05:06:46.080Z,0.00
2023-02-04T05:07:46.098Z,0.00
2023-02-04T05:08:45.973Z,0.00
2023-02-04T05:09:45.991Z,0.00
2023-02-04T05:10:46.012Z,0.00
2023-02-04T05:11:46.148Z,0.00
2023-02-04T05:12:46.019Z,0.00
2023-02-04T05:13:46.164Z,0.00
2023-02-04T05:14:46.041Z,0.00
2023-02-04T05:15:46.072Z,0.00
2023-02-04T05:16:46.198Z,0.00
2023-02-04T05:17:46.211Z,0.00
2023-02-04T05:18:46.090Z,0.00
2023-02-04T05:19:46.234Z,0.00
2023-02-04T05:20:46.123Z,0.00
2023-02-04T05:21:46.256Z,0.00
2023-02-04T05:22:46.132Z,0.00
2023-02-04T05:23:46.292Z,0.00
2023-02-04T05:24:46.170Z,0.00
2023-02-04T05:25:46.172Z,0.00
2023-02-04T05:26:46.187Z,0.00
2023-02-04T05:27:46.344Z,0.00
2023-02-04T05:28:46.199Z,0.00
2023-02-04T05:29:46.343Z,0.00
2023-02-04T05:30:46.340Z,0.00
2023-02-04T05:31:46.439Z,0.00
2023-02-04T05:32:46.245Z,0.00
2023-02-04T05:33:46.391Z,0.00
2023-02-04T05:34:46.400Z,0.00
2023-02-04T05:35:47.075Z,0.00
2023-02-04T05:36:46.299Z,0.00
2023-02-04T05:37:46.338Z,0.00
2023-02-04T05:38:46.316Z,0.00
2023-02-04T05:39:46.454Z,0.00
2023-02-04T05:40:46.351Z,0.00
2023-02-04T05:41:46.479Z,0.00
2023-02-04T05:42:46.403Z,0.00
2023-02-04T05:43:46.505Z,0.00
2023-02-04T05:44:46.513Z,0.00
2023-02-04T05:45:46.585Z,0.00
2023-02-04T05:46:46.404Z,0.00
2023-02-04T05:47:46.545Z,0.00
2023-02-04T05:48:46.425Z,0.00
2023-02-04T05:49:46.574Z,0.00
2023-02-04T05:50:46.577Z,0.00
2023-02-04T05:51:46.458Z,0.00
2023-02-04T05:52:46.606Z,0.00
2023-02-04T05:53:46.513Z,0.00
2023-02-04T05:54:46.626Z,0.00
2023-02-04T05:55:46.508Z,0.00
2023-02-04T05:56:46.649Z,0.00
2023-02-04T05:57:46.524Z,0.00
2023-02-04T05:58:46.673Z,0.00
2023-02-04T05:59:46.550Z,0.00
2023-02-04T06:00:46.691Z,0.00
2023-02-04T06:01:46.574Z,0.00
2023-02-04T06:02:46.723Z,0.00
2023-02-04T06:03:46.599Z,0.00
2023-02-04T06:04:46.605Z,0.00
2023-02-04T06:05:46.643Z,0.00
2023-02-04T06:06:46.642Z,0.00
2023-02-04T06:07:46.657Z,0.00
2023-02-04T06:08:46.797Z,0.00
2023-02-04T06:09:46.801Z,0.00
2023-02-04T06:10:46.809Z,0.00
2023-02-04T06:11:46.692Z,0.00
2023-02-04T06:12:46.835Z,0.00
2023-02-04T06:13:46.714Z,0.00
2023-02-04T06:14:46.869Z,0.00
2023-02-04T06:15:46.741Z,0.00
2023-02-04T06:16:46.931Z,0.00
2023-02-04T06:17:46.774Z,0.00
2023-02-04T06:18:46.900Z,0.00
2023-02-04T06:19:46.777Z,0.00
2023-02-04T06:20:46.925Z,0.00
2023-02-04T06:21:46.802Z,0.00
2023-02-04T06:22:46.943Z,0.00
2023-02-04T06:23:46.960Z,0.00
2023-02-04T06:24:47.563Z,0.00
2023-02-04T06:25:46.980Z,0.00
2023-02-04T06:26:46.990Z,0.00
2023-02-04T06:27:46.903Z,0.00
2023-02-04T06:28:47.011Z,0.00
2023-02-04T06:29:46.902Z,0.00
2023-02-04T06:30:47.107Z,0.00
2023-02-04T06:31:47.261Z,0.00
2023-02-04T06:32:47.058Z,0.00
2023-02-04T06:33:46.954Z,0.00
2023-02-04T06:34:47.092Z,0.00
2023-02-04T06:35:46.960Z,0.00
2023-02-04T06:36:46.986Z,0.00
2023-02-04T06:37:46.998Z,0.00
2023-02-04T06:38:47.125Z,0.00
2023-02-04T06:39:47.009Z,0.00
2023-02-04T06:40:47.150Z,0.00
2023-02-04T06:41:47.057Z,0.00
2023-02-04T06:42:47.052Z,0.00
2023-02-04T06:43:47.182Z,0.00
2023-02-04T06:44:47.200Z,0.00
2023-02-04T06:45:47.238Z,0.00
2023-02-04T06:46:47.224Z,0.00
2023-02-04T06:47:47.103Z,0.00
2023-02-04T06:48:47.244Z,0.00
2023-02-04T06:49:47.132Z,0.00
2023-02-04T06:50:47.263Z,0.00
2023-02-04T06:51:47.275Z,0.00
2023-02-04T06:52:47.155Z,0.00
2023-02-04T06:53:47.164Z,0.00
2023-02-04T06:54:47.315Z,0.00
2023-02-04T06:55:47.344Z,0.00
2023-02-04T06:56:47.332Z,0.00
2023-02-04T06:57:47.244Z,0.00
2023-02-04T06:58:47.354Z,0.00
2023-02-04T06:59:47.235Z,0.00
2023-02-04T07:00:47.243Z,0.00
2023-02-04T07:01:47.305Z,0.00
2023-02-04T07:02:47.435Z,0.00
2023-02-04T07:03:47.306Z,0.00
2023-02-04T07:04:47.858Z,0.00
2023-02-04T07:05:47.322Z,0.00
2023-02-04T07:06:47.315Z,0.00
2023-02-04T07:07:47.334Z,0.00
2023-02-04T07:08:47.503Z,0.00
2023-02-04T07:09:47.480Z,0.00
2023-02-04T07:10:47.491Z,0.00
2023-02-04T07:11:47.502Z,0.00
2023-02-04T07:12:47.388Z,0.00
2023-02-04T07:13:47.420Z,0.00
2023-02-04T07:14:47.550Z,0.00
2023-02-04T07:15:47.607Z,0.00
2023-02-04T07:16:47.582Z,0.00
2023-02-04T07:17:47.451Z,0.00
2023-02-04T07:18:47.465Z,0.00
2023-02-04T07:19:47.472Z,0.00
2023-02-04T07:20:47.606Z,0.00
2023-02-04T07:21:47.617Z,0.00
2023-02-04T07:22:47.628Z,0.00
2023-02-04T07:23:47.510Z,0.00
2023-02-04T07:24:47.654Z,0.00
2023-02-04T07:25:47.667Z,0.00
2023-02-04T07:26:47.673Z,0.00
2023-02-04T07:27:47.713Z,0.00
2023-02-04T07:28:47.574Z,0.00
2023-02-04T07:29:47.617Z,0.00
2023-02-04T07:30:47.826Z,0.00
2023-02-04T07:31:47.687Z,0.00
2023-02-04T07:32:47.620Z,0.00
2023-02-04T07:33:47.629Z,0.00
2023-02-04T07:34:47.765Z,0.00
2023-02-04T07:35:47.776Z,0.00
2023-02-04T07:36:47.944Z,0.00
2023-02-04T07:37:47.798Z,0.00
2023-02-04T07:38:47.816Z,0.00
2023-02-04T07:39:47.700Z,0.00
2023-02-04T07:40:47.829Z,0.00
2023-02-04T07:41:47.725Z,0.00
2023-02-04T07:42:47.849Z,0.00
2023-02-04T07:43:47.878Z,0.00
2023-02-04T07:44:47.870Z,0.00
2023-02-04T07:45:47.781Z,0.00
2023-02-04T07:46:47.901Z,0.00
2023-02-04T07:47:47.905Z,0.00
2023-02-04T07:48:47.795Z,0.00
2023-02-04T07:49:47.793Z,0.00
2023-02-04T07:50:47.940Z,0.00
2023-02-04T07:51:47.819Z,0.00
2023-02-04T07:52:47.963Z,0.00
2023-02-04T07:53:47.839Z,0.00
2023-02-04T07:54:47.855Z,0.00
2023-02-04T07:55:47.859Z,0.00
2023-02-04T07:56:48.007Z,0.00
2023-02-04T07:57:47.883Z,0.00
2023-02-04T07:58:47.897Z,0.00
2023-02-04T07:59:47.910Z,0.00
2023-02-04T08:00:48.048Z,0.00
2023-02-04T08:01:48.038Z,0.00
2023-02-04T08:02:48.122Z,0.00
2023-02-04T08:03:47.959Z,0.00
2023-02-04T08:04:48.096Z,0.00
2023-02-04T08:05:47.976Z,0.00
2023-02-04T08:06:48.115Z,0.00
2023-02-04T08:07:48.002Z,0.00
2023-02-04T08:08:48.004Z,0.00
2023-02-04T08:09:48.020Z,0.00
2023-02-04T08:10:48.164Z,0.00
2023-02-04T08:11:48.044Z,0.00
2023-02-04T08:12:48.188Z,0.00
2023-02-04T08:13:48.062Z,0.00
2023-02-04T08:14:48.217Z,0.00
2023-02-04T08:15:48.113Z,0.00
2023-02-04T08:16:48.237Z,0.00
2023-02-04T08:17:48.130Z,0.00
2023-02-04T08:18:48.128Z,0.00
2023-02-04T08:19:48.130Z,0.00
2023-02-04T08:20:48.272Z,0.00
2023-02-04T08:21:48.155Z,0.00
2023-02-04T08:22:48.295Z,0.00
2023-02-04T08:23:48.305Z,0.00
2023-02-04T08:24:48.318Z,0.00
2023-02-04T08:25:48.201Z,0.00
2023-02-04T08:26:48.338Z,0.00
2023-02-04T08:27:48.250Z,0.00
2023-02-04T08:28:48.233Z,0.00
2023-02-04T08:29:48.244Z,0.00
2023-02-04T08:30:48.270Z,0.00
2023-02-04T08:31:48.305Z,0.00
2023-02-04T08:32:48.408Z,0.00
2023-02-04T08:33:48.312Z,0.00
2023-02-04T08:34:48.310Z,0.00
2023-02-04T08:35:48.323Z,0.00
2023-02-04T08:36:48.453Z,0.00
2023-02-04T08:37:48.335Z,0.00
2023-02-04T08:38:48.475Z,0.00
2023-02-04T08:39:48.486Z,0.00
2023-02-04T08:40:48.498Z,0.00
2023-02-04T08:41:48.386Z,0.00
2023-02-04T08:42:48.519Z,0.00
2023-02-04T08:43:48.532Z,0.00
2023-02-04T08:44:48.420Z,0.00
2023-02-04T08:45:48.560Z,0.00
2023-02-04T08:46:48.658Z,0.00
2023-02-04T08:47:48.477Z,0.00
2023-02-04T08:48:48.602Z,0.00
2023-02-04T08:49:48.513Z,0.00
2023-02-04T08:50:48.505Z,0.00
2023-02-04T08:51:48.530Z,0.00
2023-02-04T08:52:48.657Z,5.63
2023-02-04T08:53:48.538Z,5.63
2023-02-04T08:54:48.693Z,5.63
2023-02-04T08:55:48.560Z,5.63
2023-02-04T08:56:48.586Z,5.63
2023-02-04T08:57:48.717Z,11.25
2023-02-04T08:58:48.743Z,11.25
2023-02-04T08:59:48.617Z,11.25
2023-02-04T09:00:48.778Z,11.25
2023-02-04T09:01:50.805Z,11.25
2023-02-04T09:02:48.778Z,11.25
2023-02-04T09:03:48.817Z,16.88
2023-02-04T09:04:48.671Z,16.88
2023-02-04T09:05:48.735Z,16.88
2023-02-04T09:06:48.850Z,16.88
2023-02-04T09:07:48.713Z,22.50
2023-02-04T09:08:48.853Z,22.50
2023-02-04T09:09:48.743Z,22.50
2023-02-04T09:10:48.753Z,28.13
2023-02-04T09:11:48.780Z,28.13
2023-02-04T09:12:48.898Z,28.13
2023-02-04T09:13:48.795Z,28.13
2023-02-04T09:14:48.926Z,33.75
2023-02-04T09:15:48.808Z,33.75
2023-02-04T09:16:49.014Z,33.75
2023-02-04T09:17:48.827Z,33.75
2023-02-04T09:18:48.973Z,39.38
2023-02-04T09:19:48.991Z,39.38
2023-02-04T09:20:48.996Z,39.38
2023-02-04T09:21:48.914Z,39.38
2023-02-04T09:22:49.021Z,39.38
2023-02-04T09:23:48.900Z,39.38
2023-02-04T09:24:48.914Z,39.38
2023-02-04T09:25:48.931Z,45.00
2023-02-04T09:26:49.072Z,45.00
2023-02-04T09:27:48.992Z,45.00
2023-02-04T09:28:49.093Z,45.00
2023-02-04T09:29:48.987Z,50.63
2023-02-04T09:30:49.103Z,50.63
2023-02-04T09:31:49.186Z,50.63
2023-02-04T09:32:49.142Z,56.25
2023-02-04T09:33:49.023Z,56.25
2023-02-04T09:34:49.171Z,56.25
2023-02-04T09:35:49.190Z,56.25
2023-02-04T09:36:49.199Z,61.88
2023-02-04T09:37:49.099Z,61.88
2023-02-04T09:38:49.214Z,61.88
2023-02-04T09:39:49.238Z,67.50
2023-02-04T09:40:49.106Z,67.50
2023-02-04T09:41:49.249Z,73.13
2023-02-04T09:42:49.262Z,73.13
2023-02-04T09:43:49.149Z,73.13
2023-02-04T09:44:49.288Z,73.13
2023-02-04T09:45:49.251Z,73.13
2023-02-04T09:46:49.331Z,78.75
2023-02-04T09:47:49.324Z,84.38
2023-02-04T09:48:49.334Z,84.38
2023-02-04T09:49:49.222Z,90.00
2023-02-04T09:50:49.376Z,95.63
2023-02-04T09:51:49.371Z,95.63
2023-02-04T09:52:49.251Z,101.25
2023-02-04T09:53:49.391Z,101.25
2023-02-04T09:54:49.403Z,101.25
2023-02-04T09:55:49.276Z,101.25
2023-02-04T09:56:49.416Z,106.88
2023-02-04T09:57:49.306Z,106.88
2023-02-04T09:58:49.440Z,106.88
2023-02-04T09:59:49.341Z,106.88
2023-02-04T10:00:49.472Z,112.50
2023-02-04T10:01:49.344Z,112.50
2023-02-04T10:02:49.367Z,112.50
2023-02-04T10:03:49.453Z,118.13
2023-02-04T10:04:49.508Z,118.13
2023-02-04T10:05:49.384Z,123.75
2023-02-04T10:06:49.396Z,123.75
2023-02-04T10:07:49.541Z,129.38
2023-02-04T10:08:49.435Z,135.00
2023-02-04T10:09:49.469Z,140.63
2023-02-04T10:10:49.599Z,146.25
2023-02-04T10:11:49.589Z,146.25
2023-02-04T10:12:49.469Z,146.25
2023-02-04T10:13:49.614Z,151.88
2023-02-04T10:14:49.498Z,151.88
2023-02-04T10:15:49.636Z,157.50
2023-02-04T10:16:49.593Z,157.50
2023-02-04T10:17:49.658Z,157.50
2023-02-04T10:18:49.544Z,157.50
2023-02-04T10:19:49.559Z,157.50
2023-02-04T10:20:49.563Z,157.50
2023-02-04T10:22:50.383Z,157.50
2023-02-04T10:23:49.737Z,163.13
2023-02-04T10:24:49.743Z,163.13
2023-02-04T10:25:49.667Z,168.75
2023-02-04T10:26:49.767Z,168.75
2023-02-04T10:27:49.817Z,174.38
2023-02-04T10:28:49.700Z,174.38
2023-02-04T10:29:49.690Z,174.38
2023-02-04T10:30:49.879Z,174.38
2023-02-04T10:31:49.820Z,174.38
2023-02-04T10:32:49.720Z,168.75
2023-02-04T10:33:49.862Z,157.50
2023-02-04T10:34:49.762Z,168.75
2023-02-04T10:35:49.991Z,168.75
2023-02-04T10:36:49.778Z,168.75
2023-02-04T10:37:49.913Z,168.75
2023-02-04T10:38:49.926Z,163.13
2023-02-04T10:39:50.012Z,180.00
2023-02-04T10:40:49.951Z,180.00
2023-02-04T10:41:50.057Z,180.00
2023-02-04T10:42:49.984Z,180.00
2023-02-04T10:43:49.990Z,151.88
2023-02-04T10:44:49.871Z,168.75
2023-02-04T10:45:50.061Z,163.13
2023-02-04T10:46:50.028Z,135.00
2023-02-04T10:47:49.914Z,140.63
2023-02-04T10:48:49.918Z,135.00
2023-02-04T10:49:50.072Z,140.63
2023-02-04T10:50:49.958Z,112.50
2023-02-04T10:51:50.092Z,101.25
2023-02-04T10:52:49.973Z,106.88
2023-02-04T10:53:50.118Z,129.38
2023-02-04T10:54:50.002Z,123.75
2023-02-04T10:55:50.142Z,101.25
2023-02-04T10:56:50.032Z,118.13
2023-02-04T10:57:50.174Z,118.13
2023-02-04T10:58:50.053Z,118.13
2023-02-04T10:59:50.198Z,118.13
2023-02-04T11:00:50.208Z,123.75
2023-02-04T11:01:50.100Z,129.38
2023-02-04T11:02:50.120Z,157.50
2023-02-04T11:03:52.380Z,196.88
2023-02-04T11:04:50.134Z,202.50
2023-02-04T11:05:50.275Z,191.25
2023-02-04T11:06:50.167Z,208.13
2023-02-04T11:07:50.169Z,196.88
2023-02-04T11:08:50.312Z,208.13
2023-02-04T11:09:50.323Z,230.63
2023-02-04T11:10:50.214Z,236.25
2023-02-04T11:11:50.240Z,247.50
2023-02-04T11:12:50.362Z,253.13
2023-02-04T11:13:50.383Z,298.13
2023-02-04T11:14:50.387Z,281.25
2023-02-04T11:15:51.091Z,253.13
2023-02-04T11:16:50.415Z,275.63
2023-02-04T11:17:50.431Z,270.00
2023-02-04T11:18:50.312Z,326.25
2023-02-04T11:19:50.458Z,326.25
2023-02-04T11:20:50.346Z,376.88
2023-02-04T11:21:50.367Z,360.00
2023-02-04T11:22:50.492Z,376.88
2023-02-04T11:23:50.506Z,337.50
2023-02-04T11:24:50.387Z,433.13
2023-02-04T11:25:50.535Z,461.25
2023-02-04T11:26:51.708Z,438.75
2023-02-04T11:27:50.585Z,466.88
2023-02-04T11:28:50.451Z,427.50
2023-02-04T11:29:50.590Z,444.38
2023-02-04T11:30:50.575Z,416.25
2023-02-04T11:31:50.771Z,360.00
2023-02-04T11:32:50.633Z,348.75
2023-02-04T11:33:50.661Z,354.38
2023-02-04T11:34:50.521Z,331.88
2023-02-04T11:35:50.671Z,354.38
2023-02-04T11:36:50.553Z,382.50
2023-02-04T11:37:50.698Z,388.13
2023-02-04T11:38:50.708Z,371.25
2023-02-04T11:39:50.728Z,337.50
2023-02-04T11:40:50.637Z,309.38
2023-02-04T11:41:50.613Z,360.00
2023-02-04T11:42:50.633Z,371.25
2023-02-04T11:43:50.662Z,365.63
2023-02-04T11:44:50.789Z,354.38
2023-02-04T11:45:50.827Z,337.50
2023-02-04T11:46:50.687Z,337.50
2023-02-04T11:47:50.861Z,348.75
2023-02-04T11:48:50.709Z,354.38
2023-02-04T11:49:50.864Z,360.00
2023-02-04T11:50:50.734Z,365.63
2023-02-04T11:51:50.885Z,360.00
2023-02-04T11:52:50.764Z,365.63
2023-02-04T11:53:50.782Z,348.75
2023-02-04T11:54:50.930Z,337.50
2023-02-04T11:55:50.944Z,320.63
2023-02-04T11:56:50.841Z,303.75
2023-02-04T11:57:50.970Z,326.25
2023-02-04T11:58:50.881Z,360.00
2023-02-04T11:59:50.878Z,371.25
2023-02-04T12:00:50.903Z,376.88
2023-02-04T12:01:51.030Z,399.38
2023-02-04T12:02:51.030Z,405.00
2023-02-04T12:03:51.147Z,399.38
2023-02-04T12:04:51.069Z,388.13
2023-02-04T12:05:51.088Z,376.88
2023-02-04T12:06:50.965Z,331.88
2023-02-04T12:07:51.117Z,354.38
2023-02-04T12:08:51.006Z,433.13
2023-02-04T12:09:51.142Z,461.25
2023-02-04T12:10:51.154Z,444.38
2023-02-04T12:11:51.166Z,427.50
2023-02-04T12:12:51.048Z,472.50
2023-02-04T12:13:51.092Z,466.88
2023-02-04T12:14:51.076Z,466.88
2023-02-04T12:15:51.233Z,466.88
2023-02-04T12:16:51.238Z,483.75
2023-02-04T12:17:51.150Z,455.63
2023-02-04T12:18:51.140Z,461.25
2023-02-04T12:19:51.281Z,517.50
2023-02-04T12:20:51.169Z,601.88
2023-02-04T12:21:51.186Z,590.63
2023-02-04T12:22:51.324Z,596.25
2023-02-04T12:23:51.215Z,635.63
2023-02-04T12:24:51.352Z,630.00
2023-02-04T12:25:51.367Z,613.13
2023-02-04T12:26:51.271Z,635.63
2023-02-04T12:27:51.466Z,630.00
2023-02-04T12:28:51.286Z,624.38
2023-02-04T12:29:51.427Z,579.38
2023-02-04T12:30:51.537Z,579.38
2023-02-04T12:31:51.506Z,607.50
2023-02-04T12:32:51.345Z,573.75
2023-02-04T12:33:51.484Z,624.38
2023-02-04T12:34:51.362Z,613.13
2023-02-04T12:35:51.515Z,624.38
2023-02-04T12:36:51.529Z,635.63
2023-02-04T12:37:51.408Z,680.63
2023-02-04T12:38:51.432Z,691.88
2023-02-04T12:39:51.437Z,697.50
2023-02-04T12:40:51.459Z,703.13
2023-02-04T12:41:51.600Z,720.00
2023-02-04T12:42:51.613Z,781.88
2023-02-04T12:43:51.631Z,793.13
2023-02-04T12:44:51.511Z,781.88
2023-02-04T12:45:51.658Z,776.25
2023-02-04T12:46:51.700Z,798.75
2023-02-04T12:47:51.722Z,826.88
2023-02-04T12:48:51.591Z,883.13
2023-02-04T12:49:51.628Z,888.75
2023-02-04T12:50:51.613Z,894.38
2023-02-04T12:51:51.752Z,877.50
2023-02-04T12:52:51.659Z,871.88
2023-02-04T12:53:51.654Z,871.88
2023-02-04T12:54:51.677Z,877.50
2023-02-04T12:55:51.819Z,871.88
2023-02-04T12:56:51.702Z,877.50
2023-02-04T12:57:51.847Z,821.25
2023-02-04T12:58:51.745Z,669.38
2023-02-04T12:59:51.752Z,770.63
2023-02-04T13:00:51.972Z,646.88
2023-02-04T13:01:51.938Z,607.50
2023-02-04T13:02:51.793Z,669.38
2023-02-04T13:03:51.966Z,703.13
2023-02-04T13:04:51.847Z,663.75